createdAt,value
2019-04-25T00:02:23.816Z,39.30
2019-04-25T00:04:54.243Z,38.50
2019-04-25T00:07:24.810Z,38.50
2019-04-25T00:09:56.015Z,38.50
2019-04-25T00:12:26.443Z,38.50
2019-04-25T00:14:58.415Z,38.50
2019-04-25T00:17:31.516Z,38.40
2019-04-25T00:20:02.096Z,38.50
2019-04-25T00:22:42.902Z,38.40
2019-04-25T00:25:31.921Z,38.40
2019-04-25T00:28:02.540Z,38.40
2019-04-25T00:30:33.235Z,38.40
2019-04-25T00:33:03.705Z,38.40
2019-04-25T00:35:34.366Z,38.40
2019-04-25T00:38:04.762Z,38.30
2019-04-25T00:40:35.128Z,38.40
2019-04-25T00:43:05.467Z,38.30
2019-04-25T00:45:35.828Z,38.40
2019-04-25T00:48:06.328Z,38.30
2019-04-25T00:50:36.645Z,38.30
2019-04-25T00:53:06.964Z,38.30
2019-04-25T00:55:37.369Z,38.20
2019-04-25T00:58:13.797Z,38.30
2019-04-25T01:01:04.039Z,38.30
2019-04-25T01:03:35.049Z,38.20
2019-04-25T01:06:06.427Z,38.20
2019-04-25T01:08:48.529Z,38.10
2019-04-25T01:11:18.964Z,38.10
2019-04-25T01:13:49.355Z,38.20
2019-04-25T01:16:19.745Z,38.10
2019-04-25T01:18:50.825Z,38.60
2019-04-25T01:21:21.312Z,38.20
2019-04-25T01:23:53.323Z,38.10
2019-04-25T01:26:24.031Z,38.10
2019-04-25T01:28:54.925Z,38.10
2019-04-25T01:31:27.009Z,38.10
2019-04-25T01:33:57.375Z,38.10
2019-04-25T01:36:49.483Z,38.10
2019-04-25T01:39:38.498Z,38.10
2019-04-25T01:42:26.795Z,38.10
2019-04-25T01:44:58.864Z,38.10
2019-04-25T01:47:29.493Z,38.10
2019-04-25T01:49:59.847Z,38.00
2019-04-25T01:52:30.248Z,38.00
2019-04-25T01:55:13.678Z,38.00
2019-04-25T01:57:45.356Z,37.90
2019-04-25T02:00:18.934Z,38.10
2019-04-25T02:02:50.411Z,38.00
2019-04-25T02:05:21.426Z,38.00
2019-04-25T02:07:51.915Z,37.90
2019-04-25T02:10:23.511Z,38.00
2019-04-25T02:12:58.236Z,38.00
2019-04-25T02:15:30.858Z,37.90
2019-04-25T02:18:01.855Z,38.00
2019-04-25T02:20:33.925Z,38.00
2019-04-25T02:23:05.047Z,38.00
2019-04-25T02:25:47.334Z,37.90
2019-04-25T02:28:17.918Z,37.80
2019-04-25T02:30:48.329Z,38.00
2019-04-25T02:33:18.749Z,37.90
2019-04-25T02:35:49.161Z,37.90
2019-04-25T02:38:19.642Z,37.80
2019-04-25T02:40:50.138Z,38.00
2019-04-25T02:43:20.514Z,37.90
2019-04-25T02:46:16.187Z,37.90
2019-04-25T02:49:09.581Z,37.90
2019-04-25T02:51:59.175Z,37.90
2019-04-25T02:54:29.487Z,37.90
2019-04-25T02:57:00.024Z,37.90
2019-04-25T02:59:30.333Z,37.90
2019-04-25T03:02:00.853Z,38.00
2019-04-25T03:04:31.408Z,38.00
2019-04-25T03:07:02.651Z,38.00
2019-04-25T03:09:35.276Z,38.00
2019-04-25T03:12:07.623Z,38.00
2019-04-25T03:14:37.990Z,37.40
2019-04-25T03:17:09.918Z,37.90
2019-04-25T03:20:00.885Z,37.90
2019-04-25T03:22:34.194Z,37.80
2019-04-25T03:25:06.827Z,37.90
2019-04-25T03:27:35.787Z,37.80
2019-04-25T03:30:10.992Z,37.80
2019-04-25T03:32:39.227Z,37.90
2019-04-25T03:35:09.635Z,37.90
2019-04-25T03:37:39.959Z,37.90
2019-04-25T03:40:10.353Z,38.00
2019-04-25T03:42:40.666Z,38.00
2019-04-25T03:45:30.215Z,37.90
2019-04-25T03:48:01.159Z,37.80
2019-04-25T03:50:34.095Z,38.00
2019-04-25T03:53:05.437Z,37.90
2019-04-25T03:55:37.499Z,37.90
2019-04-25T03:58:10.545Z,37.90
2019-04-25T04:00:40.049Z,37.80
2019-04-25T04:03:11.419Z,37.90
2019-04-25T04:05:41.828Z,38.00
2019-04-25T04:08:12.195Z,37.90
2019-04-25T04:10:43.248Z,37.90
2019-04-25T04:13:14.608Z,38.00
2019-04-25T04:15:45.831Z,38.00
2019-04-25T04:18:28.861Z,37.90
2019-04-25T04:21:17.444Z,37.90
2019-04-25T04:23:52.339Z,37.90
2019-04-25T04:26:23.256Z,38.00
2019-04-25T04:28:53.579Z,37.90
2019-04-25T04:31:23.990Z,38.10
2019-04-25T04:33:54.402Z,37.90
2019-04-25T04:36:24.836Z,38.00
2019-04-25T04:38:55.213Z,38.00
2019-04-25T04:41:25.589Z,37.90
2019-04-25T04:43:55.926Z,37.80
2019-04-25T04:46:26.347Z,37.80
2019-04-25T04:48:56.803Z,37.90
2019-04-25T04:51:27.170Z,37.80
2019-04-25T04:53:57.622Z,37.80
2019-04-25T04:56:27.969Z,37.80
2019-04-25T04:58:58.269Z,38.00
2019-04-25T05:01:30.257Z,37.80
2019-04-25T05:04:16.044Z,37.90
2019-04-25T05:07:09.246Z,37.90
2019-04-25T05:09:39.647Z,37.70
2019-04-25T05:12:10.711Z,37.70
2019-04-25T05:14:41.865Z,37.60
2019-04-25T05:17:14.957Z,38.00
2019-04-25T05:19:45.804Z,38.00
2019-04-25T05:22:16.862Z,38.10
2019-04-25T05:24:47.569Z,38.00
2019-04-25T05:27:33.719Z,38.00
2019-04-25T05:29:49.733Z,38.20
2019-04-25T05:32:20.189Z,38.30
2019-04-25T05:34:50.605Z,38.40
2019-04-25T05:37:21.812Z,38.40
2019-04-25T05:39:53.540Z,38.40
2019-04-25T05:42:36.435Z,38.40
2019-04-25T05:45:06.916Z,38.50
2019-04-25T05:47:37.217Z,38.90
2019-04-25T05:50:21.996Z,38.90
2019-04-25T05:52:54.130Z,38.90
2019-04-25T05:55:25.223Z,39.10
2019-04-25T05:57:55.713Z,39.10
2019-04-25T06:00:26.271Z,39.10
2019-04-25T06:02:59.132Z,39.10
2019-04-25T06:05:29.633Z,39.10
2019-04-25T06:07:59.833Z,39.10
2019-04-25T06:11:18.028Z,39.30
2019-04-25T06:14:00.335Z,39.20
2019-04-25T06:16:33.403Z,39.30
2019-04-25T06:19:14.307Z,39.30
2019-04-25T06:21:44.450Z,39.30
2019-04-25T06:24:30.655Z,39.40
2019-04-25T06:27:20.564Z,39.30
2019-04-25T06:30:08.291Z,39.40
2019-04-25T06:32:38.795Z,39.80
2019-04-25T06:35:18.715Z,40.00
2019-04-25T06:37:51.091Z,40.30
2019-04-25T06:40:22.496Z,40.70
2019-04-25T06:42:55.295Z,41.10
2019-04-25T06:45:45.353Z,41.90
2019-04-25T06:48:46.291Z,41.30
2019-04-25T06:51:17.020Z,41.30
2019-04-25T06:53:56.158Z,41.10
2019-04-25T06:56:27.444Z,41.30
2019-04-25T06:58:58.427Z,41.40
2019-04-25T07:01:29.103Z,41.60
2019-04-25T07:04:00.632Z,41.50
2019-04-25T07:06:31.370Z,41.60
2019-04-25T07:09:04.100Z,41.40
2019-04-25T07:11:36.050Z,41.00
2019-04-25T07:14:06.648Z,41.20
2019-04-25T07:16:37.836Z,41.40
2019-04-25T07:19:08.703Z,41.60
2019-04-25T07:21:40.927Z,41.00
2019-04-25T07:24:17.421Z,40.40
2019-04-25T07:27:11.333Z,40.60
2019-04-25T07:29:54.418Z,40.60
2019-04-25T07:32:34.884Z,40.60
2019-04-25T07:35:06.389Z,40.70
2019-04-25T07:37:41.802Z,41.20
2019-04-25T07:40:11.966Z,41.10
2019-04-25T07:42:45.639Z,41.00
2019-04-25T07:45:18.121Z,41.10
2019-04-25T07:47:49.165Z,41.40
2019-04-25T07:50:23.908Z,41.20
2019-04-25T07:52:54.680Z,41.30
2019-04-25T07:55:25.087Z,41.60
2019-04-25T07:57:55.705Z,41.60
2019-04-25T08:00:27.280Z,41.70
2019-04-25T08:02:57.866Z,42.10
2019-04-25T08:05:29.588Z,42.40
2019-04-25T08:08:03.532Z,43.30
2019-04-25T08:11:00.589Z,42.70
2019-04-25T08:13:37.394Z,42.80
2019-04-25T08:16:08.417Z,42.40
2019-04-25T08:18:39.044Z,41.60
2019-04-25T08:21:12.291Z,41.10
2019-04-25T08:23:44.290Z,40.90
2019-04-25T08:26:17.336Z,41.10
2019-04-25T08:28:55.208Z,41.50
2019-04-25T08:31:23.454Z,41.70
2019-04-25T08:33:54.350Z,41.90
2019-04-25T08:36:31.284Z,41.80
2019-04-25T08:39:09.953Z,41.70
2019-04-25T08:41:45.644Z,41.90
2019-04-25T08:44:15.627Z,41.90
2019-04-25T08:46:48.807Z,41.80
2019-04-25T08:49:31.233Z,42.20
2019-04-25T08:52:04.360Z,42.40
2019-04-25T08:54:51.722Z,42.20
2019-04-25T08:57:40.222Z,42.50
2019-04-25T09:00:19.858Z,43.20
2019-04-25T09:02:57.983Z,43.30
2019-04-25T09:05:38.996Z,43.30
2019-04-25T09:08:14.164Z,43.30
2019-04-25T09:10:47.189Z,42.90
2019-04-25T09:13:30.946Z,42.40
2019-04-25T09:16:05.952Z,41.60
2019-04-25T09:18:36.685Z,41.60
2019-04-25T09:21:06.401Z,42.20
2019-04-25T09:23:37.863Z,42.90
2019-04-25T09:26:08.295Z,43.30
2019-04-25T09:28:40.763Z,44.20
2019-04-25T09:31:11.648Z,43.40
2019-04-25T09:33:43.853Z,43.30
2019-04-25T09:36:14.497Z,43.90
2019-04-25T09:38:48.597Z,44.00
2019-04-25T09:41:19.370Z,43.80
2019-04-25T09:43:52.997Z,44.00
2019-04-25T09:46:29.354Z,44.50
2019-04-25T09:49:15.624Z,44.50
2019-04-25T09:51:53.437Z,44.60
2019-04-25T09:54:47.368Z,44.70
2019-04-25T09:57:36.377Z,44.30
2019-04-25T10:00:08.808Z,44.30
2019-04-25T10:03:09.975Z,44.50
2019-04-25T10:05:40.481Z,45.70
2019-04-25T10:08:14.366Z,44.60
2019-04-25T10:10:46.764Z,44.70
2019-04-25T10:13:20.612Z,44.40
2019-04-25T10:16:07.555Z,44.10
2019-04-25T10:18:41.251Z,43.90
2019-04-25T10:21:14.411Z,42.40
2019-04-25T10:23:46.424Z,41.50
2019-04-25T10:26:18.541Z,41.10
2019-04-25T10:28:49.603Z,40.50
2019-04-25T10:31:23.848Z,40.00
2019-04-25T10:33:54.604Z,39.70
2019-04-25T10:36:31.224Z,39.90
2019-04-25T10:39:10.323Z,39.60
2019-04-25T10:41:41.240Z,39.40
2019-04-25T10:44:13.984Z,39.50
2019-04-25T10:46:47.226Z,39.40
2019-04-25T10:49:18.791Z,39.20
2019-04-25T10:51:49.948Z,38.80
2019-04-25T10:54:21.939Z,38.40
2019-04-25T10:56:57.099Z,38.20
2019-04-25T10:59:27.782Z,38.70
2019-04-25T11:01:58.121Z,39.40
2019-04-25T11:04:39.664Z,40.00
2019-04-25T11:07:11.266Z,40.30
2019-04-25T11:09:44.933Z,40.30
2019-04-25T11:12:15.040Z,40.30
2019-04-25T11:14:46.435Z,40.80
2019-04-25T11:18:04.077Z,40.80
2019-04-25T11:20:35.035Z,40.80
2019-04-25T11:23:05.518Z,40.40
2019-04-25T11:25:39.355Z,40.20
2019-04-25T11:28:09.886Z,39.80
2019-04-25T11:30:41.859Z,39.30
2019-04-25T11:33:14.330Z,38.80
2019-04-25T11:35:46.797Z,38.30
2019-04-25T11:38:25.443Z,38.30
2019-04-25T11:41:01.511Z,38.20
2019-04-25T11:43:32.014Z,38.20
2019-04-25T11:46:04.823Z,38.20
2019-04-25T11:48:36.236Z,38.40
2019-04-25T11:51:08.077Z,38.50
2019-04-25T11:53:38.571Z,38.40
2019-04-25T11:56:09.347Z,38.50
2019-04-25T11:58:39.918Z,38.40
2019-04-25T12:01:13.856Z,38.50
2019-04-25T12:03:48.017Z,38.50
2019-04-25T12:06:18.404Z,38.70
2019-04-25T12:08:49.109Z,38.90
2019-04-25T12:11:19.681Z,39.40
2019-04-25T12:14:02.061Z,39.30
2019-04-25T12:16:35.080Z,39.50
2019-04-25T12:19:05.582Z,39.70
2019-04-25T12:21:38.923Z,39.90
2019-04-25T12:24:09.780Z,39.90
2019-04-25T12:26:45.310Z,40.30
2019-04-25T12:29:17.917Z,40.90
2019-04-25T12:31:49.343Z,41.20
2019-04-25T12:34:20.108Z,41.70
2019-04-25T12:36:53.954Z,41.90
2019-04-25T12:39:25.923Z,42.40
2019-04-25T12:41:58.187Z,42.70
2019-04-25T12:44:53.943Z,43.20
2019-04-25T12:47:25.624Z,43.30
2019-04-25T12:50:15.388Z,43.60
2019-04-25T12:52:47.253Z,44.00
2019-04-25T12:55:20.214Z,44.00
2019-04-25T12:57:51.457Z,43.80
2019-04-25T13:00:26.439Z,44.00
2019-04-25T13:02:57.185Z,44.50
2019-04-25T13:05:28.531Z,44.80
2019-04-25T13:08:18.481Z,44.70
2019-04-25T13:11:10.435Z,44.60
2019-04-25T13:13:43.513Z,42.70
2019-04-25T13:16:20.154Z,41.20
2019-04-25T13:18:55.611Z,40.50
2019-04-25T13:21:25.960Z,41.00
2019-04-25T13:23:58.015Z,41.30
2019-04-25T13:26:33.681Z,41.20
2019-04-25T13:32:12.269Z,41.30
2019-04-25T13:34:45.178Z,41.60
2019-04-25T13:37:16.560Z,41.40
2019-04-25T13:39:50.255Z,41.30
2019-04-25T13:42:25.265Z,42.00
2019-04-25T13:44:57.532Z,41.40
2019-04-25T13:47:39.279Z,41.20
2019-04-25T13:50:16.200Z,41.20
2019-04-25T13:52:49.043Z,41.50
2019-04-25T13:55:27.692Z,41.30
2019-04-25T13:57:58.457Z,41.10
2019-04-25T14:00:31.098Z,41.00
2019-04-25T14:03:04.922Z,41.30
2019-04-25T14:05:35.453Z,41.30
2019-04-25T14:08:06.206Z,41.40
2019-04-25T14:10:36.718Z,41.20
2019-04-25T14:13:07.702Z,40.50
2019-04-25T14:15:39.921Z,39.60
2019-04-25T14:18:28.770Z,39.40
2019-04-25T14:21:06.737Z,39.20
2019-04-25T14:23:38.367Z,39.10
2019-04-25T14:26:09.922Z,39.10
2019-04-25T14:28:40.318Z,39.10
2019-04-25T14:31:13.124Z,38.50
2019-04-25T14:33:45.139Z,38.50
